createdAt,value
2018-11-06T00:02:18.836Z,61.37
2018-11-06T00:04:52.487Z,56.60
2018-11-06T00:07:21.231Z,61.70
2018-11-06T00:09:49.714Z,61.80
2018-11-06T00:12:18.268Z,51.33
2018-11-06T00:14:46.777Z,57.50
2018-11-06T00:17:15.345Z,61.07
2018-11-06T00:19:43.883Z,54.53
2018-11-06T00:22:12.399Z,57.23
2018-11-06T00:24:41.027Z,56.83
2018-11-06T00:27:09.645Z,59.60
2018-11-06T00:29:38.350Z,62.73
2018-11-06T00:32:06.903Z,58.30
2018-11-06T00:34:35.453Z,54.07
2018-11-06T00:37:05.672Z,57.13
2018-11-06T00:39:34.149Z,52.97
2018-11-06T00:42:04.511Z,55.43
2018-11-06T00:44:33.061Z,52.87
2018-11-06T00:47:02.720Z,53.80
2018-11-06T00:49:31.421Z,58.77
2018-11-06T00:51:59.989Z,50.93
2018-11-06T00:54:28.618Z,51.17
2018-11-06T00:56:57.243Z,57.60
2018-11-06T00:59:26.208Z,58.23
2018-11-06T01:01:54.757Z,56.03
2018-11-06T01:04:23.345Z,53.73
2018-11-06T01:06:51.949Z,56.57
2018-11-06T01:09:20.535Z,54.90
2018-11-06T01:11:49.176Z,57.03
2018-11-06T01:14:17.711Z,62.93
2018-11-06T01:16:46.262Z,64.37
2018-11-06T01:19:14.800Z,65.27
2018-11-06T01:21:43.373Z,54.43
2018-11-06T01:24:11.928Z,52.23
2018-11-06T01:26:40.466Z,60.03
2018-11-06T01:29:09.557Z,64.60
2018-11-06T01:31:38.238Z,59.90
2018-11-06T01:34:06.793Z,67.87
2018-11-06T01:36:35.316Z,62.43
2018-11-06T01:39:07.628Z,70.50
2018-11-06T01:41:36.164Z,68.97
2018-11-06T01:44:05.442Z,55.57
2018-11-06T01:46:33.987Z,57.90
2018-11-06T01:49:04.049Z,57.47
2018-11-06T01:51:32.933Z,55.37
2018-11-06T01:54:02.959Z,57.17
2018-11-06T01:56:31.486Z,58.67
2018-11-06T01:58:59.994Z,57.37
2018-11-06T02:01:28.559Z,75.67
2018-11-06T02:03:57.114Z,63.57
2018-11-06T02:06:25.882Z,58.13
2018-11-06T02:08:54.408Z,52.27
2018-11-06T02:11:23.007Z,57.93
2018-11-06T02:13:51.669Z,57.87
2018-11-06T02:16:20.205Z,118.80
2018-11-06T02:18:48.720Z,52.17
2018-11-06T02:21:17.239Z,53.70
2018-11-06T02:23:45.993Z,52.90
2018-11-06T02:26:14.556Z,55.00
2018-11-06T02:28:49.623Z,49.07
2018-11-06T02:31:18.110Z,49.73
2018-11-06T02:33:46.686Z,49.30
2018-11-06T02:36:15.252Z,49.37
2018-11-06T02:38:43.853Z,48.93
2018-11-06T02:41:12.367Z,48.00
2018-11-06T02:43:40.863Z,45.17
2018-11-06T02:46:09.418Z,44.03
2018-11-06T02:48:38.205Z,43.13
2018-11-06T02:51:06.775Z,35.00
2018-11-06T02:53:35.323Z,43.23
2018-11-06T02:56:07.243Z,73.67
2018-11-06T02:58:36.163Z,38.80
2018-11-06T03:01:05.627Z,43.03
2018-11-06T03:03:41.493Z,44.97
2018-11-06T03:06:11.878Z,45.60
2018-11-06T03:08:40.719Z,39.60
2018-11-06T03:11:09.387Z,40.53
2018-11-06T03:13:38.342Z,42.13
2018-11-06T03:16:06.913Z,38.33
2018-11-06T03:18:35.733Z,40.23
2018-11-06T03:21:05.364Z,38.40
2018-11-06T03:23:33.884Z,37.63
2018-11-06T03:26:05.197Z,37.23
2018-11-06T03:28:33.853Z,32.03
2018-11-06T03:31:03.839Z,34.77
2018-11-06T03:33:32.352Z,33.80
2018-11-06T03:36:00.902Z,34.50
2018-11-06T03:38:29.457Z,37.40
2018-11-06T03:40:57.970Z,27.97
2018-11-06T03:43:26.501Z,35.20
2018-11-06T03:45:55.013Z,23.90
2018-11-06T03:48:23.547Z,26.80
2018-11-06T03:50:52.175Z,28.77
2018-11-06T03:53:20.684Z,35.53
2018-11-06T03:55:49.221Z,41.37
2018-11-06T03:58:18.521Z,40.50
2018-11-06T04:00:47.057Z,39.33
2018-11-06T04:03:15.789Z,41.13
2018-11-06T04:05:44.308Z,38.83
2018-11-06T04:08:12.926Z,35.17
2018-11-06T04:10:41.797Z,37.87
2018-11-06T04:13:10.301Z,40.07
2018-11-06T04:15:38.901Z,37.57
2018-11-06T04:18:07.420Z,38.93
2018-11-06T04:20:36.276Z,38.93
2018-11-06T04:23:05.603Z,40.00
2018-11-06T04:25:34.532Z,38.90
2018-11-06T04:28:04.357Z,39.63
2018-11-06T04:30:32.882Z,41.43
2018-11-06T04:33:03.287Z,36.20
2018-11-06T04:35:32.373Z,43.73
2018-11-06T04:38:00.908Z,51.03
2018-11-06T04:40:29.486Z,45.87
2018-11-06T04:42:57.996Z,44.77
2018-11-06T04:45:26.566Z,39.47
2018-11-06T04:47:55.114Z,49.33
2018-11-06T04:50:23.673Z,50.87
2018-11-06T04:52:52.261Z,43.53
2018-11-06T04:55:20.788Z,49.40
2018-11-06T04:57:49.827Z,52.97
2018-11-06T05:00:18.350Z,50.37
2018-11-06T05:02:46.916Z,57.00
2018-11-06T05:05:15.600Z,57.43
2018-11-06T05:07:44.505Z,54.33
2018-11-06T05:10:15.944Z,59.33
2018-11-06T05:12:44.809Z,62.07
2018-11-06T05:15:14.573Z,55.93
2018-11-06T05:17:43.168Z,60.47
2018-11-06T05:20:14.384Z,63.10
2018-11-06T05:22:43.391Z,62.30
2018-11-06T05:25:11.902Z,65.67
2018-11-06T05:27:40.691Z,66.47
2018-11-06T05:30:10.807Z,68.13
2018-11-06T05:32:40.360Z,68.70
2018-11-06T05:35:09.736Z,75.30
2018-11-06T05:37:39.499Z,68.93
2018-11-06T05:40:19.241Z,73.73
2018-11-06T05:42:47.840Z,71.57
2018-11-06T05:45:16.347Z,73.77
2018-11-06T05:47:48.911Z,75.70
2018-11-06T05:50:17.806Z,78.50
2018-11-06T05:52:46.337Z,71.63
2018-11-06T05:55:15.042Z,70.53
2018-11-06T05:57:43.640Z,80.97
2018-11-06T06:00:12.274Z,78.83
2018-11-06T06:02:40.888Z,73.53
2018-11-06T06:05:09.252Z,77.97
2018-11-06T06:07:37.796Z,74.33
2018-11-06T06:10:07.089Z,74.63
2018-11-06T06:12:36.006Z,78.13
2018-11-06T06:15:06.840Z,66.20
2018-11-06T06:17:35.469Z,69.20
2018-11-06T06:20:06.654Z,69.93
2018-11-06T06:22:35.342Z,72.77
2018-11-06T06:25:10.541Z,70.97
2018-11-06T06:27:39.209Z,74.90
2018-11-06T06:30:10.289Z,71.17
2018-11-06T06:32:38.861Z,71.60
2018-11-06T06:35:07.483Z,69.80
2018-11-06T06:37:36.053Z,66.93
2018-11-06T06:40:06.509Z,65.83
2018-11-06T06:42:35.041Z,69.77
2018-11-06T06:45:07.334Z,67.27
2018-11-06T06:47:36.720Z,65.97
2018-11-06T06:50:08.283Z,68.23
2018-11-06T06:52:37.268Z,68.30
2018-11-06T06:55:07.592Z,68.07
2018-11-06T06:57:36.690Z,68.63
2018-11-06T07:00:06.735Z,66.17
2018-11-06T07:02:35.944Z,70.97
2018-11-06T07:05:07.068Z,67.23
2018-11-06T07:07:35.853Z,66.07
2018-11-06T07:10:06.324Z,64.50
2018-11-06T07:12:35.312Z,70.00
2018-11-06T07:15:08.014Z,69.67
2018-11-06T07:17:36.922Z,74.27
2018-11-06T07:20:07.566Z,59.90
2018-11-06T07:22:36.298Z,57.07
2018-11-06T07:25:06.604Z,64.40
2018-11-06T07:27:38.848Z,60.77
2018-11-06T07:30:09.781Z,66.40
2018-11-06T07:32:38.750Z,64.93
2018-11-06T07:35:08.419Z,61.50
2018-11-06T07:37:37.233Z,57.63
2018-11-06T07:40:06.888Z,61.50
2018-11-06T07:42:35.416Z,56.97
2018-11-06T07:45:07.153Z,55.53
2018-11-06T07:47:35.744Z,55.67
2018-11-06T07:50:06.251Z,54.07
2018-11-06T07:52:35.217Z,53.03
2018-11-06T07:55:06.295Z,49.27
2018-11-06T07:57:34.799Z,51.30
2018-11-06T08:00:10.051Z,44.57
2018-11-06T08:02:39.832Z,45.70
2018-11-06T08:05:08.542Z,44.10
2018-11-06T08:07:37.144Z,48.53
2018-11-06T08:10:06.751Z,41.93
2018-11-06T08:12:35.503Z,42.70
2018-11-06T08:15:05.724Z,39.40
2018-11-06T08:17:34.532Z,37.93
2018-11-06T08:20:05.137Z,37.73
2018-11-06T08:22:33.751Z,39.93
2018-11-06T08:25:07.071Z,37.03
2018-11-06T08:27:35.813Z,32.47
2018-11-06T08:30:06.167Z,35.90
2018-11-06T08:32:35.411Z,33.50
2018-11-06T08:35:05.730Z,33.23
2018-11-06T08:37:34.270Z,35.50
2018-11-06T08:40:05.816Z,33.77
2018-11-06T08:42:34.506Z,34.57
2018-11-06T08:45:05.432Z,32.47
2018-11-06T08:47:33.995Z,33.53
2018-11-06T08:50:03.499Z,31.17
2018-11-06T08:52:32.050Z,32.37
2018-11-06T08:55:00.777Z,30.77
2018-11-06T08:57:29.400Z,32.83
2018-11-06T08:59:57.934Z,32.20
2018-11-06T09:02:26.646Z,32.30
2018-11-06T09:04:55.385Z,31.00
2018-11-06T09:07:23.941Z,32.83
2018-11-06T09:09:52.475Z,30.67
2018-11-06T09:12:21.158Z,31.73
2018-11-06T09:14:49.698Z,32.93
2018-11-06T09:17:18.544Z,28.83
2018-11-06T09:19:47.067Z,29.67
2018-11-06T09:22:15.635Z,25.97
2018-11-06T09:24:44.768Z,29.47
2018-11-06T09:27:13.289Z,29.23
2018-11-06T09:29:41.878Z,32.13
2018-11-06T09:32:10.408Z,28.10
2018-11-06T09:34:38.940Z,28.30
2018-11-06T09:37:07.869Z,29.97
2018-11-06T09:39:37.942Z,26.83
2018-11-06T09:42:06.902Z,26.87
2018-11-06T09:44:35.501Z,26.57
2018-11-06T09:47:05.875Z,24.40
2018-11-06T09:49:34.350Z,25.20
2018-11-06T09:52:04.708Z,25.07
2018-11-06T09:54:33.206Z,27.17
2018-11-06T09:57:02.831Z,23.03
2018-11-06T09:59:31.429Z,22.27
2018-11-06T10:02:00.254Z,21.67
2018-11-06T10:04:28.832Z,24.53
2018-11-06T10:06:57.620Z,21.33
2018-11-06T10:09:25.869Z,23.27
2018-11-06T10:11:54.879Z,23.37
2018-11-06T10:14:23.377Z,21.13
2018-11-06T10:16:51.975Z,23.00
2018-11-06T10:19:20.516Z,23.73
2018-11-06T10:21:49.053Z,21.00
2018-11-06T10:24:17.636Z,22.03
2018-11-06T10:26:46.500Z,19.83
2018-11-06T10:29:15.074Z,22.50
2018-11-06T10:31:44.576Z,20.83
2018-11-06T10:34:13.104Z,22.47
2018-11-06T10:36:41.652Z,23.97
2018-11-06T10:39:12.335Z,22.07
2018-11-06T10:41:41.321Z,28.60
2018-11-06T10:44:09.962Z,21.97
2018-11-06T10:46:38.972Z,21.27
2018-11-06T10:49:08.485Z,25.17
2018-11-06T10:51:37.101Z,22.07
2018-11-06T10:54:06.131Z,20.40
2018-11-06T10:56:34.724Z,22.13
2018-11-06T10:59:06.547Z,21.80
2018-11-06T11:01:40.246Z,22.77
2018-11-06T11:04:14.100Z,20.53
2018-11-06T11:06:42.616Z,20.67
2018-11-06T11:09:11.769Z,18.50
2018-11-06T11:11:40.404Z,17.53
2018-11-06T11:14:09.032Z,18.77
2018-11-06T11:16:37.577Z,18.57
2018-11-06T11:19:06.273Z,21.37
2018-11-06T11:21:34.816Z,18.77
2018-11-06T11:24:04.837Z,20.67
2018-11-06T11:26:33.424Z,18.93
2018-11-06T11:29:04.539Z,21.70
2018-11-06T11:31:33.113Z,19.60
2018-11-06T11:34:02.687Z,19.97
2018-11-06T11:36:31.245Z,17.73
2018-11-06T11:38:59.857Z,20.80
2018-11-06T11:41:28.598Z,19.27
2018-11-06T11:43:57.145Z,17.93
2018-11-06T11:46:25.656Z,19.63
2018-11-06T11:48:54.406Z,20.33
2018-11-06T11:51:23.060Z,17.60
2018-11-06T11:53:51.588Z,20.33
2018-11-06T11:56:20.128Z,20.43
2018-11-06T11:58:48.688Z,19.27
2018-11-06T12:01:17.326Z,18.50
2018-11-06T12:03:46.162Z,19.27
2018-11-06T12:06:14.682Z,17.90
2018-11-06T12:08:43.713Z,16.00
2018-11-06T12:11:12.288Z,17.77
2018-11-06T12:13:41.009Z,17.83
2018-11-06T12:16:09.630Z,14.73
2018-11-06T12:18:38.178Z,18.10
2018-11-06T12:21:06.828Z,17.53
2018-11-06T12:23:35.340Z,17.73
2018-11-06T12:26:04.876Z,15.63
2018-11-06T12:28:33.440Z,17.73
2018-11-06T12:31:04.664Z,15.90
2018-11-06T12:33:33.563Z,19.37
2018-11-06T12:36:05.282Z,17.17
2018-11-06T12:38:33.903Z,21.13
2018-11-06T12:41:03.873Z,21.13
2018-11-06T12:43:33.618Z,19.30
2018-11-06T12:46:04.103Z,20.20
2018-11-06T12:48:32.642Z,18.60
2018-11-06T12:51:03.253Z,19.87
2018-11-06T12:53:32.052Z,19.63
2018-11-06T12:56:00.573Z,24.50
2018-11-06T12:58:29.117Z,19.87
2018-11-06T13:00:57.650Z,19.57
2018-11-06T13:03:26.323Z,17.33
2018-11-06T13:05:54.946Z,19.87
2018-11-06T13:08:23.549Z,19.73
2018-11-06T13:10:52.073Z,17.77
2018-11-06T13:13:20.643Z,18.43
2018-11-06T13:15:49.262Z,16.87
2018-11-06T13:18:17.954Z,13.47
2018-11-06T13:20:46.478Z,16.20
2018-11-06T13:23:15.212Z,14.97
2018-11-06T13:25:43.846Z,14.27
2018-11-06T13:28:12.401Z,16.83
2018-11-06T13:30:41.164Z,13.67
2018-11-06T13:33:09.821Z,15.57
2018-11-06T13:35:38.543Z,12.77
2018-11-06T13:38:07.340Z,14.70
2018-11-06T13:40:36.169Z,13.47
2018-11-06T13:43:05.724Z,13.83
2018-11-06T13:45:34.513Z,15.00
2018-11-06T13:48:05.100Z,16.30
2018-11-06T13:50:35.398Z,16.87
2018-11-06T13:53:06.566Z,18.67
2018-11-06T13:55:35.107Z,14.13
2018-11-06T13:58:05.706Z,13.27
2018-11-06T14:00:34.267Z,15.93
2018-11-06T14:03:04.647Z,15.33
2018-11-06T14:05:33.270Z,11.07
2018-11-06T14:08:02.664Z,16.93
2018-11-06T14:10:31.273Z,12.20
2018-11-06T14:12:59.833Z,11.47
2018-11-06T14:15:28.372Z,11.80
2018-11-06T14:17:56.896Z,12.40
2018-11-06T14:20:25.416Z,12.30
2018-11-06T14:22:54.458Z,11.60
2018-11-06T14:25:22.994Z,10.00
2018-11-06T14:27:51.542Z,13.47
2018-11-06T14:30:20.425Z,15.60
2018-11-06T14:32:49.273Z,17.27
2018-11-06T14:35:18.894Z,12.30
2018-11-06T14:37:47.736Z,14.60
2018-11-06T14:40:16.768Z,14.27
2018-11-06T14:42:45.749Z,13.57
2018-11-06T14:45:15.684Z,11.47
2018-11-06T14:47:44.340Z,16.17
2018-11-06T14:50:13.235Z,16.30
2018-11-06T14:52:41.784Z,14.60
2018-11-06T14:55:12.307Z,15.60
2018-11-06T14:57:41.067Z,17.43
2018-11-06T15:00:14.411Z,19.03
2018-11-06T15:02:44.256Z,17.77
2018-11-06T15:05:12.815Z,16.67
2018-11-06T15:07:41.420Z,15.50
2018-11-06T15:10:10.707Z,18.97
2018-11-06T15:12:39.288Z,20.93
2018-11-06T15:15:09.404Z,19.97
2018-11-06T15:17:38.209Z,23.27
2018-11-06T15:20:09.308Z,20.43
2018-11-06T15:22:37.963Z,18.27
2018-11-06T15:25:07.002Z,18.40
2018-11-06T15:27:36.150Z,20.80
2018-11-06T15:30:07.056Z,19.13
2018-11-06T15:32:35.606Z,23.43
2018-11-06T15:35:07.477Z,18.77
2018-11-06T15:37:36.569Z,23.43
2018-11-06T15:40:05.930Z,21.97
2018-11-06T15:42:34.569Z,21.03
2018-11-06T15:45:05.448Z,20.57
2018-11-06T15:47:34.065Z,20.33
2018-11-06T15:50:04.615Z,21.57
2018-11-06T15:52:33.335Z,24.47
2018-11-06T15:55:05.422Z,21.70
2018-11-06T15:57:34.168Z,24.10
2018-11-06T16:00:03.882Z,21.33
2018-11-06T16:02:32.878Z,21.30
2018-11-06T16:05:02.995Z,20.83
2018-11-06T16:07:31.606Z,23.67
2018-11-06T16:10:00.173Z,22.53
2018-11-06T16:12:28.740Z,26.17
2018-11-06T16:14:57.805Z,22.83
2018-11-06T16:17:26.315Z,20.60
2018-11-06T16:19:54.944Z,24.73
2018-11-06T16:22:23.503Z,21.97
2018-11-06T16:24:52.150Z,24.20
2018-11-06T16:27:20.742Z,24.77
2018-11-06T16:29:49.419Z,26.73
2018-11-06T16:32:24.113Z,27.57
2018-11-06T16:34:52.677Z,25.97
2018-11-06T16:37:21.913Z,37.43
2018-11-06T16:39:50.847Z,27.97
2018-11-06T16:42:19.496Z,33.97
2018-11-06T16:44:48.031Z,25.17
2018-11-06T16:47:16.618Z,25.40
2018-11-06T16:49:45.243Z,26.33
2018-11-06T16:52:14.909Z,23.67
2018-11-06T16:54:43.793Z,25.30
2018-11-06T16:57:12.412Z,33.67
2018-11-06T16:59:41.130Z,28.13
2018-11-06T17:02:09.928Z,26.63
2018-11-06T17:04:38.438Z,33.57
2018-11-06T17:07:07.005Z,37.20
2018-11-06T17:09:35.627Z,26.37
2018-11-06T17:12:04.462Z,27.37
2018-11-06T17:14:33.153Z,29.17
2018-11-06T17:17:04.596Z,29.83
2018-11-06T17:19:33.176Z,28.13
2018-11-06T17:22:03.179Z,28.93
2018-11-06T17:24:31.733Z,29.13
2018-11-06T17:27:00.346Z,30.43
2018-11-06T17:29:29.009Z,28.63
2018-11-06T17:31:57.568Z,31.57
2018-11-06T17:34:26.680Z,26.37
2018-11-06T17:36:55.402Z,32.07
2018-11-06T17:39:28.012Z,28.53
2018-11-06T17:41:56.533Z,27.27
2018-11-06T17:44:25.071Z,34.20
2018-11-06T17:46:53.635Z,32.37
2018-11-06T17:49:22.174Z,28.67
2018-11-06T17:51:50.736Z,27.57
2018-11-06T17:54:20.186Z,28.83
2018-11-06T17:56:49.648Z,28.87
2018-11-06T17:59:18.604Z,29.00
2018-11-06T18:01:47.170Z,31.10
2018-11-06T18:04:16.188Z,27.77
2018-11-06T18:06:44.839Z,26.57
2018-11-06T18:09:14.052Z,27.93
2018-11-06T18:11:42.688Z,29.00
2018-11-06T18:14:11.531Z,29.30
2018-11-06T18:16:40.489Z,32.50
2018-11-06T18:19:09.185Z,29.87
2018-11-06T18:21:37.769Z,30.17
2018-11-06T18:24:09.301Z,27.83
2018-11-06T18:26:38.042Z,32.57
2018-11-06T18:29:07.157Z,36.13
2018-11-06T18:31:35.805Z,30.00
2018-11-06T18:34:08.329Z,29.70
2018-11-06T18:36:37.049Z,28.37
2018-11-06T18:39:09.683Z,30.40
2018-11-06T18:41:38.420Z,32.90
2018-11-06T18:44:07.759Z,30.27
2018-11-06T18:46:36.606Z,32.40
2018-11-06T18:49:06.128Z,35.60
2018-11-06T18:51:34.712Z,34.67
2018-11-06T18:54:08.565Z,31.00
2018-11-06T18:56:37.210Z,32.73
2018-11-06T18:59:06.276Z,34.97
2018-11-06T19:01:34.920Z,34.60
2018-11-06T19:04:05.951Z,32.50
2018-11-06T19:06:34.542Z,31.97
2018-11-06T19:09:07.515Z,32.23
2018-11-06T19:11:36.187Z,29.10
2018-11-06T19:14:05.723Z,30.00
2018-11-06T19:16:34.361Z,29.63
2018-11-06T19:19:06.316Z,37.33
2018-11-06T19:21:35.063Z,31.10
2018-11-06T19:24:05.843Z,31.63
2018-11-06T19:26:34.858Z,34.50
2018-11-06T19:29:05.855Z,31.03
2018-11-06T19:31:34.541Z,33.07
2018-11-06T19:34:04.860Z,39.10
2018-11-06T19:36:33.608Z,37.07
2018-11-06T19:39:06.026Z,33.57
2018-11-06T19:41:35.609Z,44.27
2018-11-06T19:44:07.115Z,39.37
2018-11-06T19:46:36.081Z,37.07
2018-11-06T19:49:05.438Z,38.60
2018-11-06T19:51:34.906Z,41.90
2018-11-06T19:54:05.839Z,43.53
2018-11-06T19:56:35.074Z,37.83
2018-11-06T19:59:04.644Z,38.40
2018-11-06T20:01:33.489Z,36.97
2018-11-06T20:04:04.445Z,37.63
2018-11-06T20:06:33.650Z,36.37
2018-11-06T20:09:05.384Z,37.17
2018-11-06T20:11:34.666Z,37.43
2018-11-06T20:14:05.156Z,38.67
2018-11-06T20:16:34.171Z,36.07
2018-11-06T20:19:04.978Z,37.27
2018-11-06T20:21:33.721Z,37.33
2018-11-06T20:24:04.215Z,37.07
2018-11-06T20:26:33.445Z,38.73
2018-11-06T20:29:04.826Z,38.50
2018-11-06T20:31:34.018Z,32.87
2018-11-06T20:34:06.388Z,35.63
2018-11-06T20:36:35.032Z,36.60
2018-11-06T20:39:08.386Z,33.73
2018-11-06T20:41:38.200Z,35.93
2018-11-06T20:44:07.058Z,35.93
2018-11-06T20:46:36.154Z,36.87
2018-11-06T20:49:05.542Z,40.00
2018-11-06T20:51:34.310Z,38.47
2018-11-06T20:54:05.293Z,35.00
2018-11-06T20:56:34.639Z,36.73
2018-11-06T20:59:05.039Z,36.17
2018-11-06T21:01:34.000Z,37.73
2018-11-06T21:04:05.845Z,35.47
2018-11-06T21:06:34.451Z,40.03
2018-11-06T21:09:08.601Z,33.50
2018-11-06T21:11:37.499Z,36.40
2018-11-06T21:14:06.737Z,36.47
2018-11-06T21:16:35.557Z,37.43
2018-11-06T21:19:05.482Z,36.33
2018-11-06T21:21:34.397Z,33.57
2018-11-06T21:24:05.851Z,37.80
2018-11-06T21:26:34.735Z,34.87
2018-11-06T21:29:07.301Z,35.23
2018-11-06T21:31:35.980Z,35.57
2018-11-06T21:34:05.281Z,34.57
2018-11-06T21:36:34.854Z,34.73
2018-11-06T21:39:06.636Z,38.37
2018-11-06T21:41:35.227Z,34.37
2018-11-06T21:44:05.960Z,33.77
2018-11-06T21:46:34.610Z,34.07
2018-11-06T21:49:04.918Z,33.60
2018-11-06T21:51:33.622Z,30.30
2018-11-06T21:54:04.868Z,34.70
2018-11-06T21:56:33.462Z,31.87
2018-11-06T21:59:03.900Z,31.83
2018-11-06T22:01:32.801Z,29.87
2018-11-06T22:04:03.218Z,32.03
2018-11-06T22:06:31.823Z,36.40
2018-11-06T22:09:07.300Z,36.57
2018-11-06T22:11:35.896Z,35.40
2018-11-06T22:14:06.215Z,36.67
2018-11-06T22:16:34.757Z,40.00
2018-11-06T22:19:04.615Z,36.90
2018-11-06T22:21:34.581Z,30.50
2018-11-06T22:24:04.868Z,33.10
2018-11-06T22:26:33.433Z,34.83
2018-11-06T22:29:02.853Z,33.40
2018-11-06T22:31:31.541Z,31.73
2018-11-06T22:33:59.965Z,33.60
2018-11-06T22:36:28.647Z,36.47
2018-11-06T22:38:57.167Z,30.67
2018-11-06T22:41:25.842Z,27.37
2018-11-06T22:43:54.476Z,27.23
2018-11-06T22:46:23.329Z,29.43
2018-11-06T22:48:51.872Z,28.40
2018-11-06T22:51:21.386Z,29.70
2018-11-06T22:53:49.943Z,27.67
2018-11-06T22:56:18.459Z,30.43
2018-11-06T22:58:47.169Z,30.57
2018-11-06T23:01:24.749Z,28.73
2018-11-06T23:03:53.990Z,30.23
2018-11-06T23:06:22.716Z,30.33
2018-11-06T23:08:51.425Z,29.00
2018-11-06T23:11:19.937Z,31.27
2018-11-06T23:13:56.073Z,29.60
2018-11-06T23:16:24.619Z,33.37
2018-11-06T23:18:53.116Z,29.60
2018-11-06T23:21:21.689Z,32.33
2018-11-06T23:23:50.225Z,32.93
2018-11-06T23:26:18.884Z,29.00
2018-11-06T23:28:47.386Z,29.83
2018-11-06T23:31:16.351Z,33.07
2018-11-06T23:33:45.317Z,32.83
2018-11-06T23:36:13.865Z,34.30
2018-11-06T23:38:42.817Z,31.80
2018-11-06T23:41:11.538Z,30.13
2018-11-06T23:43:40.119Z,29.50
2018-11-06T23:46:09.182Z,30.40
2018-11-06T23:48:37.744Z,27.90
2018-11-06T23:51:06.306Z,28.70
2018-11-06T23:53:34.926Z,28.43
2018-11-06T23:56:05.301Z,29.60
2018-11-06T23:58:34.068Z,28.10
